Time;durP1;ratioP1;P1;durP2;ratioP2;P2;SDS_P1;SDS_P2;PMS_P1;PMS_P2;Temp;Humidity;BMP_temperature;BMP_pressure;BME280_temperature;BME280_humidity;BME280_pressure;Samples;Min_cycle;Max_cycle;Signal;HPM_P1;HPM_P2
2021/10/25 00:01:00;;;;;;;115.68;39.20;;;6.20;95.70;;;;;;5018059;28;20195;-70
2021/10/25 00:03:27;;;;;;;30.63;28.33;;;6.20;95.80;;;;;;5025968;28;20206;-70
2021/10/25 00:05:54;;;;;;;31.02;28.77;;;6.30;95.40;;;;;;5019196;28;20193;-69
2021/10/25 00:08:21;;;;;;;32.63;30.23;;;6.20;94.70;;;;;;5027582;28;20205;-70
2021/10/25 00:10:48;;;;;;;31.15;28.77;;;6.10;94.50;;;;;;5023743;28;20215;-70
2021/10/25 00:13:15;;;;;;;31.48;29.20;;;6.00;94.60;;;;;;5022040;28;20210;-70
2021/10/25 00:15:44;;;;;;;31.20;29.00;;;6.00;94.50;;;;;;5026698;28;20227;-70
2021/10/25 00:18:11;;;;;;;32.03;29.77;;;5.90;94.60;;;;;;5027938;28;20252;-70
2021/10/25 00:20:37;;;;;;;32.45;30.05;;;6.00;94.50;;;;;;5024484;28;20587;-70
2021/10/25 00:23:05;;;;;;;32.15;29.77;;;5.90;94.70;;;;;;5026360;28;20747;-70
2021/10/25 00:25:33;;;;;;;33.25;30.95;;;5.90;94.80;;;;;;5024200;28;20198;-70
2021/10/25 00:28:00;;;;;;;32.53;29.95;;;5.80;94.90;;;;;;5028127;28;20205;-70
2021/10/25 00:30:27;;;;;;;31.20;28.80;;;5.80;95.20;;;;;;5022626;28;20199;-70
2021/10/25 00:32:55;;;;;;;32.38;29.98;;;5.80;95.20;;;;;;5027321;28;20231;-70
2021/10/25 00:35:22;;;;;;;30.08;28.05;;;5.80;95.20;;;;;;5026561;28;20196;-70
2021/10/25 00:37:49;;;;;;;31.73;29.50;;;5.70;95.20;;;;;;5026939;28;20235;-70
2021/10/25 00:40:16;;;;;;;30.88;28.67;;;5.70;95.00;;;;;;5026734;28;20681;-69
2021/10/25 00:42:43;;;;;;;32.67;30.08;;;5.70;95.00;;;;;;5026039;28;20242;-70
2021/10/25 00:45:10;;;;;;;32.40;30.10;;;5.70;95.70;;;;;;5026116;28;20231;-70
2021/10/25 00:47:37;;;;;;;32.47;29.98;;;5.70;95.60;;;;;;5025132;28;20665;-70
2021/10/25 00:50:06;;;;;;;31.00;28.73;;;5.70;95.80;;;;;;5026764;28;20195;-70
2021/10/25 00:52:36;;;;;;;30.80;28.60;;;5.90;95.90;;;;;;5024313;28;20216;-70
2021/10/25 00:55:04;;;;;;;33.55;30.88;;;5.90;96.00;;;;;;5026252;28;20702;-70
2021/10/25 00:57:31;;;;;;;38.53;33.03;;;6.00;96.00;;;;;;5025455;28;20219;-69
2021/10/25 00:59:58;;;;;;;34.10;31.13;;;6.00;96.30;;;;;;5022523;28;20205;-70
2021/10/25 01:02:25;;;;;;;69.65;34.60;;;6.00;96.20;;;;;;5022930;28;20244;-70
2021/10/25 01:04:52;;;;;;;94.35;36.88;;;6.10;96.10;;;;;;5023610;28;20199;-69
2021/10/25 01:07:21;;;;;;;56.25;33.30;;;6.10;96.70;;;;;;5027172;28;20195;-70
2021/10/25 01:09:49;;;;;;;32.97;30.35;;;6.10;96.60;;;;;;5026633;28;20273;-70
2021/10/25 01:12:17;;;;;;;31.80;29.40;;;6.20;96.40;;;;;;5022565;28;20304;-70
2021/10/25 01:14:43;;;;;;;32.47;29.92;;;6.30;95.90;;;;;;5027797;28;20286;-70
2021/10/25 01:17:10;;;;;;;31.13;28.80;;;6.30;95.60;;;;;;5026077;28;20219;-70
2021/10/25 01:19:37;;;;;;;32.08;29.52;;;6.30;95.20;;;;;;5025016;28;20595;-70
2021/10/25 01:22:06;;;;;;;32.28;29.77;;;6.40;95.00;;;;;;5019696;28;20220;-70
2021/10/25 01:24:33;;;;;;;30.65;28.40;;;6.40;95.00;;;;;;5023890;28;20203;-70
2021/10/25 01:27:00;;;;;;;32.42;30.02;;;6.30;95.10;;;;;;5021137;28;20193;-70
2021/10/25 01:29:26;;;;;;;32.42;29.83;;;6.30;95.00;;;;;;5026701;28;20236;-70
2021/10/25 01:31:54;;;;;;;32.92;30.10;;;6.30;95.10;;;;;;5028090;28;20231;-70
2021/10/25 01:34:21;;;;;;;32.47;29.58;;;6.40;94.90;;;;;;5029662;28;20189;-70
2021/10/25 01:36:47;;;;;;;31.98;29.65;;;6.40;95.40;;;;;;5029699;28;20228;-70
2021/10/25 01:39:16;;;;;;;30.55;28.42;;;6.40;94.90;;;;;;5031479;28;20201;-70
2021/10/25 01:41:43;;;;;;;30.55;28.30;;;6.40;95.00;;;;;;5027351;28;20223;-70
2021/10/25 01:44:11;;;;;;;30.00;27.58;;;6.40;94.80;;;;;;5033799;28;20200;-70
2021/10/25 01:46:38;;;;;;;30.75;28.35;;;6.50;94.40;;;;;;5029800;28;20224;-70
2021/10/25 01:49:06;;;;;;;30.70;28.45;;;6.50;94.50;;;;;;5035060;28;20205;-69
2021/10/25 01:51:33;;;;;;;30.77;28.33;;;6.50;94.90;;;;;;5027993;28;20698;-70
2021/10/25 01:54:01;;;;;;;30.60;28.38;;;6.50;94.70;;;;;;5031951;28;20601;-70
2021/10/25 01:56:30;;;;;;;30.83;28.00;;;6.40;94.50;;;;;;5027752;28;20567;-71
2021/10/25 01:58:57;;;;;;;40.85;29.20;;;6.40;96.10;;;;;;5032264;28;20221;-70
2021/10/25 02:01:24;;;;;;;188.77;43.92;;;6.40;95.40;;;;;;5024098;28;20284;-70
2021/10/25 02:03:51;;;;;;;30.90;28.50;;;6.30;97.40;;;;;;5027492;28;20495;-70
2021/10/25 02:06:18;;;;;;;30.65;28.40;;;6.30;96.70;;;;;;5028007;28;20315;-70
2021/10/25 02:08:46;;;;;;;31.10;28.77;;;6.20;96.10;;;;;;5032902;28;20543;-71
2021/10/25 02:11:13;;;;;;;29.60;27.48;;;6.20;95.60;;;;;;5029088;28;20218;-70
2021/10/25 02:13:43;;;;;;;31.10;28.80;;;6.20;95.70;;;;;;5031952;28;20193;-70
2021/10/25 02:16:10;;;;;;;30.08;27.95;;;6.10;95.30;;;;;;5028912;28;20287;-70
2021/10/25 02:18:37;;;;;;;28.85;26.75;;;6.10;95.30;;;;;;5029274;28;20218;-70
2021/10/25 02:21:05;;;;;;;889.67;117.78;;;6.10;95.00;;;;;;5028390;28;20683;-70
2021/10/25 02:23:32;;;;;;;30.08;27.85;;;6.10;95.80;;;;;;5032518;28;20219;-70
2021/10/25 02:25:59;;;;;;;30.77;28.55;;;6.10;96.40;;;;;;5037096;28;20626;-69
2021/10/25 02:28:26;;;;;;;29.95;27.65;;;6.00;95.70;;;;;;5032879;28;20200;-70
2021/10/25 02:30:54;;;;;;;29.55;27.42;;;6.00;95.20;;;;;;5023297;28;20205;-70
2021/10/25 02:33:22;;;;;;;29.35;27.35;;;6.00;95.10;;;;;;5029042;28;20209;-69
2021/10/25 02:35:49;;;;;;;29.75;27.55;;;6.00;94.90;;;;;;5027733;28;20192;-70
2021/10/25 02:38:17;;;;;;;29.70;27.50;;;6.00;94.60;;;;;;5028567;28;20214;-70
2021/10/25 02:40:44;;;;;;;30.38;28.17;;;6.00;94.50;;;;;;5025502;28;20220;-70
2021/10/25 02:43:11;;;;;;;30.30;28.20;;;6.00;94.60;;;;;;5028862;28;21047;-70
2021/10/25 02:45:39;;;;;;;29.17;27.08;;;5.90;94.70;;;;;;5025654;28;20215;-70
2021/10/25 02:48:08;;;;;;;27.98;25.88;;;5.90;94.60;;;;;;5030201;28;20192;-70
2021/10/25 02:50:35;;;;;;;29.50;27.35;;;5.90;94.50;;;;;;5028121;28;20207;-70
2021/10/25 02:53:03;;;;;;;28.73;26.73;;;5.80;94.80;;;;;;5030332;28;20563;-70
2021/10/25 02:55:30;;;;;;;579.58;87.75;;;5.80;94.90;;;;;;5029707;28;20202;-70
2021/10/25 02:57:57;;;;;;;30.88;28.67;;;5.80;95.60;;;;;;5019853;28;20217;-71
2021/10/25 03:00:23;;;;;;;30.02;28.02;;;5.80;96.30;;;;;;5032731;28;20210;-73
2021/10/25 03:02:51;;;;;;;29.58;27.55;;;5.80;96.00;;;;;;5028789;28;20225;-71
2021/10/25 03:05:19;;;;;;;29.50;27.10;;;5.80;95.70;;;;;;5027034;28;20212;-71
2021/10/25 03:07:46;;;;;;;31.35;28.77;;;5.80;95.40;;;;;;5028834;28;20192;-71
2021/10/25 03:10:13;;;;;;;1999.90;316.45;;;5.80;95.20;;;;;;5026724;28;20278;-71
2021/10/25 03:12:40;;;;;;;409.50;67.18;;;5.80;97.60;;;;;;5028821;28;20217;-71
2021/10/25 03:15:08;;;;;;;30.70;28.45;;;5.80;97.90;;;;;;5027431;28;20257;-71
2021/10/25 03:17:35;;;;;;;30.83;28.65;;;5.80;97.00;;;;;;5024439;28;20242;-70
2021/10/25 03:20:02;;;;;;;62.15;32.03;;;5.80;96.20;;;;;;5027287;28;20238;-71
2021/10/25 03:22:31;;;;;;;31.05;28.80;;;5.80;97.70;;;;;;5028311;28;20212;-70
2021/10/25 03:24:58;;;;;;;31.63;29.40;;;5.80;96.70;;;;;;5027919;28;20210;-69
2021/10/25 03:27:27;;;;;;;31.42;28.90;;;5.70;96.10;;;;;;5027208;28;20226;-71
2021/10/25 03:29:54;;;;;;;30.27;28.17;;;5.70;95.80;;;;;;5025269;28;20698;-70
2021/10/25 03:32:22;;;;;;;30.15;28.05;;;5.70;95.70;;;;;;5028781;28;20243;-70
2021/10/25 03:34:49;;;;;;;29.65;27.42;;;5.70;95.00;;;;;;5028141;28;20222;-70
2021/10/25 03:37:16;;;;;;;30.08;28.08;;;5.60;94.60;;;;;;5023914;28;20201;-70
2021/10/25 03:39:46;;;;;;;28.67;26.58;;;5.50;94.70;;;;;;5029230;28;20205;-69
2021/10/25 03:42:21;;;;;;;29.70;27.60;;;5.50;95.20;;;;;;5026903;28;20228;-70
2021/10/25 03:44:49;;;;;;;28.75;26.75;;;5.50;97.70;;;;;;5027418;28;20306;-70
2021/10/25 03:47:19;;;;;;;158.98;37.47;;;5.50;98.10;;;;;;5027640;28;20555;-70
2021/10/25 03:49:50;;;;;;;29.98;27.98;;;5.50;98.70;;;;;;5028495;28;20291;-70
2021/10/25 03:52:24;;;;;;;27.85;25.98;;;5.50;97.20;;;;;;5019344;28;20834;-70
2021/10/25 03:54:59;;;;;;;31.85;29.52;;;5.50;96.50;;;;;;5023916;28;20236;-70
2021/10/25 04:25:42;;;;;;;28.67;26.63;;;5.10;97.00;;;;;;5024775;28;20375;-69
2021/10/25 04:28:12;;;;;;;29.55;27.35;;;5.10;96.60;;;;;;5027827;28;20195;-70
2021/10/25 04:30:39;;;;;;;141.85;37.35;;;5.10;97.30;;;;;;5018108;28;20607;-69
2021/10/25 04:33:07;;;;;;;63.08;32.78;;;5.10;97.20;;;;;;5026910;28;20227;-70
2021/10/25 04:35:34;;;;;;;31.88;29.48;;;5.10;97.30;;;;;;5027271;28;20253;-70
2021/10/25 04:38:02;;;;;;;29.05;26.95;;;5.30;98.80;;;;;;5025521;28;20215;-70
2021/10/25 04:40:29;;;;;;;689.47;99.57;;;5.30;97.00;;;;;;5026535;28;20290;-70
2021/10/25 04:42:58;;;;;;;31.15;28.92;;;5.30;97.70;;;;;;5026636;28;20235;-70
2021/10/25 04:45:26;;;;;;;30.00;27.80;;;5.20;97.20;;;;;;5025611;28;20202;-70
2021/10/25 04:47:54;;;;;;;32.10;29.88;;;5.30;96.60;;;;;;5026839;28;20473;-69
2021/10/25 04:50:21;;;;;;;30.23;28.02;;;5.40;96.70;;;;;;5025541;28;20219;-70
2021/10/25 04:52:48;;;;;;;50.95;31.27;;;5.40;95.50;;;;;;5025258;28;20960;-69
2021/10/25 04:55:16;;;;;;;30.27;27.98;;;5.40;96.20;;;;;;5019208;28;20197;-70
2021/10/25 04:57:43;;;;;;;335.80;70.03;;;5.40;96.10;;;;;;5022723;28;22249;-70
2021/10/25 05:00:11;;;;;;;116.72;35.88;;;5.40;95.70;;;;;;5025030;28;20779;-70
2021/10/25 05:02:39;;;;;;;33.95;30.95;;;5.40;96.00;;;;;;5028153;28;20689;-70
2021/10/25 05:05:07;;;;;;;32.47;29.90;;;5.50;96.00;;;;;;5029837;28;20203;-72
2021/10/25 05:07:34;;;;;;;29.50;27.45;;;5.40;95.80;;;;;;5030586;28;20600;-69
2021/10/25 05:10:02;;;;;;;32.28;30.08;;;5.40;95.30;;;;;;5022861;28;20291;-71
2021/10/25 05:12:29;;;;;;;31.17;28.40;;;5.40;95.10;;;;;;5031073;28;20908;-70
2021/10/25 05:14:56;;;;;;;30.23;28.13;;;5.40;94.50;;;;;;5029311;28;20208;-75
2021/10/25 05:17:23;;;;;;;35.22;33.03;;;5.40;94.40;;;;;;5030957;28;20757;-69
2021/10/25 05:19:52;;;;;;;32.80;30.70;;;5.50;94.00;;;;;;5028868;28;20470;-71
2021/10/25 05:22:25;;;;;;;31.63;29.50;;;5.70;93.90;;;;;;5027324;28;20226;-71
2021/10/25 05:24:52;;;;;;;28.98;27.13;;;5.60;93.10;;;;;;5024443;28;20206;-71
2021/10/25 05:27:21;;;;;;;32.15;29.83;;;5.50;92.90;;;;;;5024919;28;20303;-72
2021/10/25 05:29:48;;;;;;;31.60;29.40;;;5.50;93.10;;;;;;5027959;28;20203;-71
2021/10/25 05:32:15;;;;;;;29.85;27.80;;;5.50;92.80;;;;;;5030696;28;20224;-70
2021/10/25 05:34:42;;;;;;;31.83;29.73;;;5.50;92.90;;;;;;5029536;28;20207;-72
2021/10/25 05:37:11;;;;;;;30.35;28.15;;;5.50;93.10;;;;;;5026122;28;20196;-74
2021/10/25 05:39:38;;;;;;;31.50;29.10;;;5.50;92.90;;;;;;5022088;28;20216;-71
2021/10/25 05:42:08;;;;;;;31.55;29.20;;;5.50;92.50;;;;;;5029051;28;20326;-71
2021/10/25 05:44:36;;;;;;;32.33;30.23;;;5.30;92.30;;;;;;5023799;28;20946;-73
2021/10/25 05:47:04;;;;;;;33.00;30.90;;;5.30;92.30;;;;;;5031352;28;20508;-74
2021/10/25 05:49:31;;;;;;;32.15;30.05;;;5.30;92.30;;;;;;5029054;28;20283;-72
2021/10/25 05:51:59;;;;;;;30.38;28.33;;;5.40;92.00;;;;;;5030959;28;20278;-71
2021/10/25 05:54:27;;;;;;;31.25;28.90;;;5.40;91.90;;;;;;5023086;28;20670;-71
2021/10/25 05:56:55;;;;;;;32.78;30.42;;;5.30;92.30;;;;;;5027045;28;20620;-71
2021/10/25 05:59:25;;;;;;;34.28;32.05;;;5.30;92.20;;;;;;5026940;28;20224;-76
2021/10/25 06:02:04;;;;;;;31.13;28.92;;;5.30;91.70;;;;;;5031934;28;20216;-75
2021/10/25 06:04:32;;;;;;;31.98;29.73;;;5.30;92.40;;;;;;5014062;28;20198;-71
2021/10/25 06:06:59;;;;;;;31.52;29.25;;;5.30;92.40;;;;;;5029026;28;20232;-71
2021/10/25 06:09:33;;;;;;;30.92;28.48;;;5.40;92.10;;;;;;5028578;28;20663;-71
2021/10/25 06:12:01;;;;;;;31.55;29.13;;;5.40;91.70;;;;;;5030839;28;20210;-70
2021/10/25 06:14:33;;;;;;;32.10;29.70;;;5.50;91.70;;;;;;5028507;28;20199;-72
2021/10/25 06:17:01;;;;;;;33.50;31.00;;;5.50;91.40;;;;;;5029793;28;20520;-70
2021/10/25 06:19:28;;;;;;;33.58;30.90;;;5.70;90.80;;;;;;5030071;28;20243;-70
2021/10/25 06:21:56;;;;;;;31.98;29.67;;;5.60;90.50;;;;;;5031311;28;20223;-70
2021/10/25 06:24:23;;;;;;;31.40;29.27;;;5.50;91.00;;;;;;5026399;28;20209;-71
2021/10/25 06:26:52;;;;;;;31.80;29.40;;;5.50;90.90;;;;;;5031452;28;20805;-70
2021/10/25 06:29:18;;;;;;;31.90;29.70;;;5.50;91.10;;;;;;5029074;28;20199;-70
2021/10/25 06:31:45;;;;;;;30.92;28.42;;;5.60;90.80;;;;;;5030811;28;20232;-71
2021/10/25 06:34:20;;;;;;;31.50;29.23;;;5.50;90.10;;;;;;5024875;28;20192;-72
2021/10/25 06:36:52;;;;;;;32.30;29.67;;;5.60;90.40;;;;;;5023135;28;20203;-72
2021/10/25 06:39:23;;;;;;;32.72;30.33;;;5.60;91.10;;;;;;5027725;28;20218;-71
2021/10/25 06:41:52;;;;;;;29.73;27.83;;;5.60;90.90;;;;;;5030097;28;20241;-71
2021/10/25 06:44:19;;;;;;;43.63;31.80;;;5.70;91.20;;;;;;5021994;28;20206;-71
2021/10/25 06:46:46;;;;;;;30.42;28.23;;;5.80;90.40;;;;;;5022381;28;20222;-71
2021/10/25 06:49:13;;;;;;;32.50;30.20;;;5.80;90.40;;;;;;5026104;28;20681;-71
2021/10/25 06:51:40;;;;;;;31.70;29.40;;;5.90;90.20;;;;;;5030479;28;20725;-71
2021/10/25 06:54:07;;;;;;;30.02;27.65;;;5.90;90.20;;;;;;5025930;28;20195;-71
2021/10/25 06:56:35;;;;;;;31.42;29.33;;;6.00;89.90;;;;;;5030982;28;20736;-70
2021/10/25 06:59:06;;;;;;;31.52;28.95;;;6.00;89.90;;;;;;5028103;28;20226;-71
2021/10/25 07:01:33;;;;;;;30.52;28.52;;;6.10;89.20;;;;;;5030212;28;20227;-70
2021/10/25 07:04:00;;;;;;;32.30;29.98;;;6.20;90.10;;;;;;5025754;28;20283;-70
2021/10/25 07:06:30;;;;;;;30.52;28.40;;;6.20;89.10;;;;;;5029481;28;20314;-70
2021/10/25 07:08:57;;;;;;;28.80;26.90;;;6.30;88.60;;;;;;5026675;28;20197;-71
2021/10/25 07:11:24;;;;;;;30.20;28.00;;;6.30;88.30;;;;;;5027973;28;20216;-71
2021/10/25 07:13:52;;;;;;;28.42;26.42;;;6.30;89.10;;;;;;5026648;28;20200;-69
2021/10/25 07:16:23;;;;;;;30.55;27.90;;;6.30;88.90;;;;;;5018606;28;20205;-69
2021/10/25 07:19:03;;;;;;;29.23;27.33;;;6.30;88.70;;;;;;5026942;28;20223;-72
2021/10/25 08:00:40;;;;;;;31.77;29.10;;;8.30;84.30;;;;;;5027064;28;20223;-71
2021/10/25 08:06:09;;;;;;;31.60;29.17;;;8.70;83.90;;;;;;5105431;27;20558;-72
2021/10/25 08:08:47;;;;;;;32.00;29.45;;;8.90;83.60;;;;;;5093885;28;20191;-72
2021/10/25 08:11:15;;;;;;;31.10;29.00;;;9.10;82.40;;;;;;5075560;28;20208;-72
2021/10/25 08:13:43;;;;;;;32.97;30.60;;;9.30;81.50;;;;;;5085008;28;20421;-71
2021/10/25 08:16:20;;;;;;;33.35;30.75;;;9.40;80.70;;;;;;5072632;28;20256;-71
2021/10/25 08:19:22;;;;;;;33.07;30.43;;;9.50;80.30;;;;;;5085156;28;20194;-72
2021/10/25 08:21:51;;;;;;;30.33;28.33;;;9.70;80.20;;;;;;5075655;28;20875;-71
2021/10/25 08:24:18;;;;;;;31.20;29.00;;;9.80;80.00;;;;;;5079087;28;20501;-73
2021/10/25 08:26:45;;;;;;;31.17;28.90;;;10.00;79.80;;;;;;5085885;28;20450;-72
2021/10/25 08:29:14;;;;;;;32.60;29.90;;;10.20;79.70;;;;;;5088045;28;20453;-71
2021/10/25 08:31:42;;;;;;;30.23;27.93;;;10.20;80.00;;;;;;5091866;28;20465;-71
2021/10/25 08:39:48;;;;;;;30.87;28.87;;;10.60;79.70;;;;;;5084219;28;20963;-72
2021/10/25 08:42:17;;;;;;;30.10;27.97;;;10.70;78.50;;;;;;5087848;28;20500;-74
2021/10/25 08:44:46;;;;;;;30.57;28.37;;;10.80;78.00;;;;;;5081479;28;20480;-72
2021/10/25 08:47:17;;;;;;;33.40;31.13;;;10.80;77.70;;;;;;5098056;28;20460;-73
2021/10/25 08:49:45;;;;;;;33.60;31.03;;;10.90;76.80;;;;;;5081980;28;20453;-72
2021/10/25 08:52:13;;;;;;;32.77;30.33;;;11.00;77.20;;;;;;5084637;28;20559;-72
2021/10/25 08:54:41;;;;;;;31.73;29.43;;;11.00;77.00;;;;;;5075852;28;21278;-72
2021/10/25 08:57:08;;;;;;;31.20;29.17;;;11.00;76.20;;;;;;5088312;28;20878;-72
2021/10/25 08:59:35;;;;;;;32.60;30.43;;;11.10;76.10;;;;;;5089890;28;20453;-72
2021/10/25 09:02:07;;;;;;;30.80;28.63;;;11.10;75.70;;;;;;5086212;28;20465;-72
2021/10/25 09:04:35;;;;;;;31.93;29.53;;;11.00;75.40;;;;;;5087250;28;20577;-72
2021/10/25 09:07:02;;;;;;;30.67;28.83;;;11.20;75.40;;;;;;5080196;28;20457;-72
2021/10/25 09:09:31;;;;;;;30.70;28.73;;;11.30;75.40;;;;;;5076570;28;20458;-71
2021/10/25 09:12:05;;;;;;;30.13;28.17;;;11.30;74.70;;;;;;5081886;28;20821;-71
2021/10/25 09:14:33;;;;;;;30.03;27.97;;;11.40;74.50;;;;;;5073210;28;20837;-70
2021/10/25 09:17:03;;;;;;;32.40;30.07;;;11.50;74.20;;;;;;5074602;28;20485;-71
2021/10/25 09:19:32;;;;;;;32.80;30.60;;;11.60;73.80;;;;;;5072294;28;20901;-70
2021/10/25 09:22:07;;;;;;;31.33;29.33;;;11.70;73.60;;;;;;5065446;28;20466;-70
2021/10/25 09:24:36;;;;;;;32.10;29.60;;;11.70;73.60;;;;;;5080491;28;20482;-71
2021/10/25 09:27:06;;;;;;;29.43;27.63;;;11.90;73.60;;;;;;5086004;28;20485;-71
2021/10/25 09:29:35;;;;;;;28.87;27.00;;;12.00;73.50;;;;;;5067174;28;20601;-70
2021/10/25 09:32:08;;;;;;;29.47;27.60;;;12.10;72.80;;;;;;5076324;28;20466;-70
2021/10/25 09:34:41;;;;;;;28.93;27.13;;;12.20;72.40;;;;;;5079910;28;20453;-71
2021/10/25 09:37:12;;;;;;;30.53;28.60;;;12.30;70.80;;;;;;5071590;28;20454;-71
2021/10/25 09:39:46;;;;;;;30.40;28.20;;;12.30;70.20;;;;;;5066373;28;20454;-70
2021/10/25 09:45:24;;;;;;;31.33;29.10;;;12.50;69.40;;;;;;5063160;28;20967;-71
2021/10/25 09:50:44;;;;;;;30.40;28.60;;;12.70;69.40;;;;;;5064060;28;20465;-71
2021/10/25 09:53:12;;;;;;;31.77;29.67;;;12.80;69.20;;;;;;5077366;28;20445;-70
2021/10/25 09:55:45;;;;;;;29.80;27.93;;;13.00;68.70;;;;;;5059777;28;20450;-70
2021/10/25 09:58:18;;;;;;;29.83;27.83;;;13.20;68.50;;;;;;5083701;28;20459;-71
2021/10/25 10:00:46;;;;;;;31.33;29.37;;;13.30;67.90;;;;;;5069173;28;20462;-70
2021/10/25 10:03:13;;;;;;;30.93;28.97;;;13.50;67.50;;;;;;5080983;28;20449;-71
2021/10/25 10:05:41;;;;;;;30.00;28.00;;;13.50;67.30;;;;;;5068269;28;20478;-69
2021/10/25 10:08:09;;;;;;;31.50;29.40;;;13.60;67.60;;;;;;5068718;28;20580;-71
2021/10/25 10:10:37;;;;;;;29.47;27.43;;;13.60;67.30;;;;;;5070543;28;20461;-71
2021/10/25 10:13:07;;;;;;;31.57;29.17;;;13.80;66.40;;;;;;5056913;28;20470;-72
2021/10/25 10:15:35;;;;;;;29.93;27.93;;;13.80;66.40;;;;;;5058187;28;20450;-71
2021/10/25 10:18:08;;;;;;;29.37;27.57;;;13.80;65.50;;;;;;5071685;28;20537;-72
2021/10/25 10:20:41;;;;;;;32.30;29.83;;;13.80;65.50;;;;;;5070358;28;20546;-72
2021/10/25 10:23:14;;;;;;;30.13;28.40;;;13.80;65.40;;;;;;5055623;28;20537;-71
2021/10/25 10:25:51;;;;;;;30.60;28.57;;;13.90;65.20;;;;;;5064313;28;21069;-72
2021/10/25 10:28:21;;;;;;;31.87;29.97;;;13.90;64.90;;;;;;5058932;28;21048;-71
2021/10/25 10:30:53;;;;;;;29.03;27.20;;;13.90;64.90;;;;;;5071392;28;20457;-71
2021/10/25 10:33:31;;;;;;;29.97;27.97;;;14.00;65.00;;;;;;5068376;28;20866;-71
2021/10/25 10:36:10;;;;;;;29.60;27.60;;;14.20;64.70;;;;;;5062993;28;21082;-71
2021/10/25 10:38:44;;;;;;;29.77;27.97;;;14.30;64.40;;;;;;5067643;28;20462;-74
2021/10/25 10:41:12;;;;;;;30.43;28.17;;;14.40;64.60;;;;;;5058398;28;20474;-72
2021/10/25 10:43:40;;;;;;;31.17;29.17;;;14.50;64.80;;;;;;5066333;28;20459;-74
2021/10/25 10:46:13;;;;;;;30.23;28.53;;;14.70;64.70;;;;;;5058156;28;21081;-71
2021/10/25 10:48:45;;;;;;;29.03;27.17;;;14.80;64.40;;;;;;5068824;28;20540;-72
2021/10/25 10:51:15;;;;;;;28.60;26.83;;;14.90;63.90;;;;;;5061853;28;20475;-73
2021/10/25 10:53:52;;;;;;;30.07;27.87;;;15.00;63.40;;;;;;5065281;28;20473;-70
2021/10/25 10:56:24;;;;;;;29.70;27.90;;;15.10;63.40;;;;;;5058951;28;20449;-72
2021/10/25 10:59:05;;;;;;;28.40;26.80;;;15.20;63.40;;;;;;5067911;28;21049;-73
2021/10/25 11:01:33;;;;;;;29.93;27.90;;;15.20;63.60;;;;;;5069646;28;20512;-76
2021/10/25 11:04:02;;;;;;;30.70;28.80;;;15.20;63.70;;;;;;5067617;28;21208;-71
2021/10/25 11:06:31;;;;;;;31.07;29.07;;;15.30;63.70;;;;;;5078337;28;20506;-73
2021/10/25 11:08:58;;;;;;;29.60;27.80;;;15.30;63.60;;;;;;5083310;28;20952;-73
2021/10/25 11:11:25;;;;;;;30.93;29.03;;;15.30;63.80;;;;;;5062157;28;20508;-73
2021/10/25 11:13:58;;;;;;;29.60;27.70;;;15.30;63.80;;;;;;5067218;28;20462;-73
2021/10/25 11:16:34;;;;;;;30.50;28.60;;;15.30;64.20;;;;;;5066462;28;20497;-74
2021/10/25 11:19:04;;;;;;;31.30;29.50;;;15.40;64.30;;;;;;5067501;28;20520;-72
2021/10/25 11:21:33;;;;;;;30.90;28.77;;;15.40;64.40;;;;;;5068909;28;20474;-73
2021/10/25 11:24:03;;;;;;;30.20;27.70;;;15.50;64.20;;;;;;5064813;28;20462;-74
2021/10/25 11:26:32;;;;;;;31.03;28.80;;;15.70;63.80;;;;;;5070171;28;20484;-72
2021/10/25 11:29:04;;;;;;;30.30;28.40;;;15.70;63.50;;;;;;5065212;28;21020;-72
2021/10/25 11:31:34;;;;;;;28.93;27.17;;;15.70;63.40;;;;;;5068111;28;20509;-71
2021/10/25 11:34:03;;;;;;;32.97;30.87;;;15.80;63.20;;;;;;5065598;28;20998;-71
2021/10/25 11:36:31;;;;;;;29.50;27.77;;;15.90;63.20;;;;;;5061768;28;20486;-74
2021/10/25 11:38:59;;;;;;;29.90;28.00;;;16.00;63.30;;;;;;5067140;28;20539;-73
2021/10/25 11:41:26;;;;;;;30.00;28.30;;;16.00;63.40;;;;;;5061838;28;20497;-74
2021/10/25 11:43:54;;;;;;;30.20;28.10;;;16.00;63.40;;;;;;5067428;28;21103;-75
2021/10/25 11:46:24;;;;;;;28.67;27.07;;;15.90;63.50;;;;;;5074339;28;20473;-72
2021/10/25 11:48:53;;;;;;;29.03;27.23;;;16.00;63.70;;;;;;5052681;28;20450;-72
2021/10/25 11:51:21;;;;;;;29.47;27.87;;;16.10;63.40;;;;;;5071142;28;20580;-72
2021/10/25 11:53:54;;;;;;;31.33;29.43;;;16.10;62.90;;;;;;5056607;28;20816;-76
2021/10/25 11:56:21;;;;;;;30.00;28.20;;;16.20;63.20;;;;;;5069982;28;20450;-71
2021/10/25 11:58:49;;;;;;;30.40;28.17;;;16.20;63.30;;;;;;5066753;28;20541;-71
2021/10/25 12:01:16;;;;;;;32.27;30.57;;;16.30;62.30;;;;;;5063875;28;20482;-73
2021/10/25 12:03:44;;;;;;;29.80;27.97;;;16.30;61.90;;;;;;5064488;28;20447;-71
2021/10/25 12:06:16;;;;;;;29.50;27.57;;;16.30;62.10;;;;;;5065664;28;20474;-72
2021/10/25 12:08:55;;;;;;;31.20;28.90;;;16.30;62.10;;;;;;5065701;28;20454;-71
2021/10/25 12:11:33;;;;;;;29.50;27.53;;;16.40;62.40;;;;;;5068147;28;20482;-71
2021/10/25 12:14:02;;;;;;;29.10;27.30;;;16.50;61.90;;;;;;5065953;28;20536;-71
2021/10/25 12:16:29;;;;;;;30.90;28.97;;;16.60;61.80;;;;;;5072444;28;20465;-71
2021/10/25 12:18:57;;;;;;;28.60;26.80;;;16.70;61.80;;;;;;5072299;28;20497;-72
2021/10/25 12:21:32;;;;;;;28.33;26.60;;;16.70;60.80;;;;;;5065223;28;20474;-72
2021/10/25 12:24:01;;;;;;;28.60;27.00;;;16.80;60.60;;;;;;5065808;28;20463;-72
2021/10/25 12:26:28;;;;;;;28.90;27.00;;;16.80;61.20;;;;;;5068183;28;20584;-72
2021/10/25 12:28:56;;;;;;;27.80;26.10;;;16.90;59.80;;;;;;5060113;28;20472;-74
2021/10/25 12:31:23;;;;;;;27.90;26.30;;;16.90;59.80;;;;;;5069148;28;21138;-72
2021/10/25 12:34:02;;;;;;;28.73;27.10;;;17.00;59.10;;;;;;5061897;28;20485;-72
2021/10/25 12:36:35;;;;;;;27.47;25.73;;;17.10;58.90;;;;;;5061131;28;20541;-72
2021/10/25 12:39:06;;;;;;;27.03;25.30;;;17.20;58.60;;;;;;5060198;28;21091;-71
2021/10/25 12:41:43;;;;;;;26.50;25.00;;;17.00;58.40;;;;;;5070828;28;20482;-70
2021/10/25 12:44:10;;;;;;;27.77;26.13;;;17.00;58.00;;;;;;5061389;28;20454;-70
2021/10/25 12:46:37;;;;;;;29.90;27.80;;;16.90;58.70;;;;;;5062368;28;21008;-70
2021/10/25 12:49:06;;;;;;;28.30;26.60;;;16.90;58.90;;;;;;5069693;28;20476;-70
2021/10/25 12:51:37;;;;;;;29.03;27.00;;;17.00;58.60;;;;;;5065287;28;20573;-70
2021/10/25 12:54:08;;;;;;;29.70;28.00;;;17.00;58.50;;;;;;5066725;28;20457;-70
2021/10/25 12:56:35;;;;;;;29.47;27.77;;;17.00;58.70;;;;;;5073230;28;20442;-70
2021/10/25 12:59:04;;;;;;;31.80;29.60;;;17.00;58.70;;;;;;5071566;28;20450;-70
2021/10/25 13:01:31;;;;;;;30.47;28.60;;;17.20;59.40;;;;;;5074137;28;20484;-71
2021/10/25 13:03:58;;;;;;;31.23;29.20;;;17.30;59.20;;;;;;5069380;28;21637;-74
2021/10/25 13:06:29;;;;;;;32.30;30.10;;;17.40;58.80;;;;;;5072661;28;20898;-72
2021/10/25 13:09:00;;;;;;;31.47;29.43;;;17.50;58.70;;;;;;5070386;28;20465;-72
2021/10/25 13:11:27;;;;;;;30.87;28.67;;;17.50;58.60;;;;;;5068951;28;21014;-73
2021/10/25 13:13:56;;;;;;;31.87;29.60;;;17.60;58.40;;;;;;5070930;28;21177;-72
2021/10/25 13:16:28;;;;;;;29.97;27.83;;;17.60;58.20;;;;;;5068741;28;20454;-74
2021/10/25 13:18:55;;;;;;;30.13;28.20;;;17.50;58.10;;;;;;5059104;28;20504;-74
2021/10/25 13:21:23;;;;;;;29.67;27.47;;;17.50;58.50;;;;;;5065112;28;20477;-73
2021/10/25 13:23:51;;;;;;;30.17;28.27;;;17.50;58.20;;;;;;5064566;28;20462;-76
2021/10/25 13:26:18;;;;;;;31.03;28.70;;;17.60;57.70;;;;;;5069743;28;20466;-74
2021/10/25 13:28:45;;;;;;;27.10;25.37;;;17.50;57.70;;;;;;5061763;28;20454;-73
2021/10/25 13:31:12;;;;;;;27.23;25.53;;;17.60;55.20;;;;;;5057586;28;20809;-73
2021/10/25 13:33:41;;;;;;;27.43;25.50;;;17.80;52.60;;;;;;5080928;28;20486;-73
2021/10/25 13:36:08;;;;;;;28.27;26.57;;;17.80;52.70;;;;;;5062567;28;20449;-73
2021/10/25 13:38:36;;;;;;;25.77;24.27;;;17.90;52.50;;;;;;5063808;28;20598;-73
2021/10/25 13:41:06;;;;;;;28.27;26.67;;;17.90;52.00;;;;;;5070349;28;20464;-72
2021/10/25 13:43:33;;;;;;;25.70;24.27;;;17.90;51.60;;;;;;5070576;28;20937;-73
2021/10/25 13:46:00;;;;;;;26.77;25.03;;;17.90;51.20;;;;;;5067105;28;20482;-72
2021/10/25 13:48:28;;;;;;;25.40;24.00;;;17.90;51.20;;;;;;5063559;28;21006;-73
2021/10/25 13:50:55;;;;;;;26.50;25.00;;;17.90;51.10;;;;;;5068960;28;20462;-72
2021/10/25 13:53:22;;;;;;;25.50;24.10;;;17.90;51.20;;;;;;5070053;28;20991;-72
2021/10/25 13:55:49;;;;;;;27.03;25.43;;;17.90;50.90;;;;;;5061038;28;20466;-72
2021/10/25 13:58:18;;;;;;;27.20;25.40;;;17.90;50.50;;;;;;5070300;28;20549;-72
2021/10/25 14:00:45;;;;;;;26.63;25.03;;;17.90;50.60;;;;;;5057150;28;20469;-73
2021/10/25 14:03:12;;;;;;;26.30;24.80;;;17.90;50.70;;;;;;5084405;28;20573;-72